^^
B2 Weather Station Historical Data
 
Daily Summary for November 20, 2017 Units:  English    Metric   Both
« Previous Day
Next Day »
Daily Weekly Monthly Yearly Custom
  Current: High: Low: Average:
Temperature: 39.1 °F 39.1 °F 28.9 °F 31.9 °F
Dew Point: 30.1 °F 30.3 °F 23.3 °F 25.9 °F
Humidity: 70 % 82 % 70 % 78 %
Wind Speed: 11.5 mph 17.3 mph 0.0 mph 5.8 mph
Wind Gust: 11.5 mph 17.3 mph - -
Wind:SSW - - SW
Pressure: 30.00 in 30.12 in 30.00 in -
Precipitation: 0.00 in      
Historical Graphs
 
 
Tabular Data for November 20, 2017
Time Temperature Dew Point Pressure Wind Wind Speed Wind Gust Humidity Rainfall Rate (Hourly) solar Conditions
00:00 29.8 °F 23.5 °F 30.12 in Calm     77 % 0.00 in 0.0 W/m2 CLR
00:05 29.6 °F 23.3 °F 30.12 in Calm     77 % 0.00 in 0.0 W/m2 CLR
00:10 29.3 °F 23.3 °F 30.12 in Calm     78 % 0.00 in 0.0 W/m2 CLR
00:25 29.0 °F 23.3 °F 30.11 in Calm     79 % 0.00 in 0.0 W/m2 CLR
00:30 28.9 °F 23.5 °F 30.11 in WSW 2.3 mph 2.3 mph 80 % 0.00 in 0.0 W/m2 CLR
00:45 29.1 °F 23.7 °F 30.10 in WSW 1.2 mph   80 % 0.00 in 0.0 W/m2 CLR
00:50 29.2 °F 23.8 °F 30.10 in WSW 2.3 mph 2.3 mph 80 % 0.00 in 0.0 W/m2 CLR
00:55 29.3 °F 23.9 °F 30.10 in WSW 2.3 mph 2.3 mph 80 % 0.00 in 0.0 W/m2 CLR
01:00 29.5 °F 23.8 °F 30.10 in WSW 1.2 mph 1.2 mph 79 % 0.00 in 0.0 W/m2 CLR
01:05 29.6 °F 23.9 °F 30.10 in Calm     79 % 0.00 in 0.0 W/m2 CLR
01:20 29.3 °F 23.9 °F 30.09 in Calm     80 % 0.00 in 0.0 W/m2 CLR
01:25 29.1 °F 23.7 °F 30.09 in WSW 1.2 mph 1.2 mph 80 % 0.00 in 0.0 W/m2 CLR
01:27 29.1 °F 24.0 °F 30.09 in WSW 3.5 mph 3.5 mph 81 % 0.00 in 0.0 W/m2 CLR
01:32 29.1 °F 24.0 °F 30.09 in WSW 1.0 mph 1.0 mph 81 % 0.00 in 0.0 W/m2 CLR
01:37 29.2 °F 24.1 °F 30.09 in WSW 3.5 mph 3.5 mph 81 % 0.00 in 0.0 W/m2 CLR
01:42 29.3 °F 24.2 °F 30.09 in WSW 5.8 mph 5.8 mph 81 % 0.00 in 0.0 W/m2 CLR
01:48 29.5 °F 24.4 °F 30.09 in WSW 5.0 mph 5.0 mph 81 % 0.00 in 0.0 W/m2 CLR
01:53 29.8 °F 24.4 °F 30.09 in WSW 3.5 mph 3.5 mph 80 % 0.00 in 0.0 W/m2 CLR
01:58 30.1 °F 24.7 °F 30.09 in WSW 2.3 mph 2.3 mph 80 % 0.00 in 0.0 W/m2 CLR
02:03 30.2 °F 24.5 °F 30.09 in WSW 3.5 mph 3.5 mph 79 % 0.00 in 0.0 W/m2 CLR
02:08 30.3 °F 24.6 °F 30.09 in WSW 4.6 mph 4.6 mph 79 % 0.00 in 0.0 W/m2 CLR
02:18 30.3 °F 24.6 °F 30.09 in WSW 3.5 mph 3.5 mph 79 % 0.00 in 0.0 W/m2 CLR
02:23 30.2 °F 24.5 °F 30.08 in WSW 3.0 mph 3.0 mph 79 % 0.00 in 0.0 W/m2 CLR
02:28 30.1 °F 24.7 °F 30.08 in WSW 1.2 mph   80 % 0.00 in 0.0 W/m2 CLR
02:33 29.9 °F 24.5 °F 30.08 in WSW 2.3 mph 2.3 mph 80 % 0.00 in 0.0 W/m2 CLR
02:38 29.9 °F 24.5 °F 30.08 in WSW 2.3 mph   80 % 0.00 in 0.0 W/m2 CLR
02:43 29.9 °F 24.8 °F 30.08 in WSW 5.8 mph 5.8 mph 81 % 0.00 in 0.0 W/m2 CLR
02:48 29.9 °F 24.8 °F 30.08 in WSW 5.8 mph 5.8 mph 81 % 0.00 in 0.0 W/m2 CLR
02:53 29.7 °F 24.6 °F 30.08 in WSW 3.5 mph 3.5 mph 81 % 0.00 in 0.0 W/m2 CLR
02:58 29.7 °F 24.9 °F 30.08 in WSW 7.0 mph 7.0 mph 82 % 0.00 in 0.0 W/m2 CLR
03:08 30.0 °F 24.9 °F 30.08 in WSW 2.3 mph 2.3 mph 81 % 0.00 in 0.0 W/m2 CLR
03:18 30.1 °F 25.0 °F 30.08 in WSW 4.6 mph 4.6 mph 81 % 0.00 in 0.0 W/m2 CLR
03:23 30.1 °F 25.0 °F 30.08 in SW 8.1 mph 8.1 mph 81 % 0.00 in 0.0 W/m2 CLR
03:28 30.1 °F 25.0 °F 30.08 in SW 4.6 mph 4.6 mph 81 % 0.00 in 0.0 W/m2 CLR
03:33 30.1 °F 25.0 °F 30.08 in SW 4.0 mph 4.0 mph 81 % 0.00 in 0.0 W/m2 CLR
03:43 30.3 °F 25.5 °F 30.07 in SW 5.0 mph 5.0 mph 82 % 0.00 in 0.0 W/m2 CLR
03:53 30.3 °F 25.5 °F 30.08 in SW 3.5 mph 3.5 mph 82 % 0.00 in 0.0 W/m2 CLR
03:58 30.4 °F 25.6 °F 30.07 in SW 8.1 mph 8.1 mph 82 % 0.00 in 0.0 W/m2 CLR
04:03 30.5 °F 25.7 °F 30.07 in SW 1.2 mph 1.2 mph 82 % 0.00 in 0.0 W/m2 CLR
04:13 30.8 °F 25.7 °F 30.07 in SW 4.6 mph 4.6 mph 81 % 0.00 in 0.0 W/m2 CLR
04:18 30.8 °F 25.7 °F 30.07 in SW 8.1 mph 8.1 mph 81 % 0.00 in 0.0 W/m2 CLR
04:23 31.0 °F 25.9 °F 30.07 in SW 3.5 mph 3.5 mph 81 % 0.00 in 0.0 W/m2 CLR
04:28 31.0 °F 25.6 °F 30.06 in SW 3.5 mph 3.5 mph 80 % 0.00 in 0.0 W/m2 CLR
04:33 31.1 °F 25.7 °F 30.06 in SW 3.5 mph 3.5 mph 80 % 0.00 in 0.0 W/m2 CLR
04:38 31.2 °F 25.7 °F 30.06 in SW 3.5 mph 3.5 mph 80 % 0.00 in 0.0 W/m2 CLR
04:48 31.3 °F 25.8 °F 30.06 in SW 3.5 mph 3.5 mph 80 % 0.00 in 0.0 W/m2 CLR
04:58 31.4 °F 25.9 °F 30.05 in SW 5.8 mph 5.8 mph 80 % 0.00 in 0.0 W/m2 CLR
05:03 31.5 °F 25.7 °F 30.05 in SW 3.5 mph 3.5 mph 79 % 0.00 in 0.0 W/m2 CLR
05:08 31.6 °F 25.8 °F 30.05 in SW 2.3 mph 2.3 mph 79 % 0.00 in 0.0 W/m2 CLR
05:13 31.6 °F 25.8 °F 30.05 in SW 2.3 mph 2.3 mph 79 % 0.00 in 0.0 W/m2 CLR
05:18 31.7 °F 25.9 °F 30.05 in SW 2.3 mph 2.3 mph 79 % 0.00 in 0.0 W/m2 CLR
05:28 31.8 °F 26.0 °F 30.05 in SW 2.3 mph 2.3 mph 79 % 0.00 in 0.0 W/m2 CLR
05:38 32.1 °F 26.3 °F 30.05 in SW 3.5 mph 3.5 mph 79 % 0.00 in 0.0 W/m2 CLR
05:43 32.2 °F 26.1 °F 30.05 in SW 10.4 mph 10.4 mph 78 % 0.00 in 0.0 W/m2 CLR
05:53 32.4 °F 26.3 °F 30.04 in SW 9.2 mph 9.2 mph 78 % 0.00 in 0.0 W/m2 CLR
05:58 32.5 °F 26.4 °F 30.04 in SSW 6.9 mph 6.9 mph 78 % 0.00 in 0.0 W/m2 CLR
06:03 32.5 °F 26.4 °F 30.04 in SSW 9.2 mph 9.2 mph 78 % 0.00 in 0.0 W/m2 CLR
06:08 32.6 °F 26.2 °F 30.04 in SSW 9.2 mph 9.2 mph 77 % 0.00 in 0.0 W/m2 CLR
06:18 32.7 °F 26.3 °F 30.04 in SSW 6.9 mph 6.9 mph 77 % 0.00 in 0.0 W/m2 CLR
06:23 32.7 °F 26.3 °F 30.04 in SSW 9.2 mph 9.2 mph 77 % 0.00 in 0.0 W/m2 CLR
06:28 32.8 °F 26.4 °F 30.04 in SSW 3.5 mph 3.5 mph 77 % 0.00 in 0.0 W/m2 CLR
06:33 32.9 °F 26.5 °F 30.04 in SSW 9.2 mph 9.2 mph 77 % 0.00 in 0.0 W/m2 CLR
06:38 33.0 °F 26.6 °F 30.04 in SSW 7.0 mph 7.0 mph 77 % 0.00 in 0.0 W/m2 CLR
06:43 33.0 °F 26.6 °F 30.04 in SSW 7.0 mph 7.0 mph 77 % 0.00 in 0.0 W/m2 CLR
07:03 32.9 °F 26.8 °F 30.04 in SSW 8.1 mph 8.1 mph 78 % 0.00 in 9.0 W/m2 CLR
07:08 32.8 °F 26.7 °F 30.04 in SSW 8.1 mph 8.1 mph 78 % 0.00 in 11.0 W/m2 CLR
07:13 32.8 °F 27.0 °F 30.04 in SSW 9.2 mph 9.2 mph 79 % 0.00 in 12.0 W/m2 CLR
07:18 33.0 °F 26.9 °F 30.04 in SSW 6.9 mph 6.9 mph 78 % 0.00 in 19.0 W/m2 CLR
07:23 33.2 °F 27.1 °F 30.04 in SSW 9.2 mph 9.2 mph 78 % 0.00 in 26.0 W/m2 CLR
07:33 33.8 °F 27.4 °F 30.04 in SSW 11.5 mph 11.5 mph 77 % 0.00 in 49.0 W/m2 CLR
07:38 34.2 °F 27.7 °F 30.04 in SSW 5.0 mph 5.0 mph 77 % 0.00 in 58.0 W/m2 CLR
07:43 34.4 °F 27.6 °F 30.04 in SSW 6.9 mph 6.9 mph 76 % 0.00 in 76.0 W/m2 CLR
07:48 34.7 °F 27.9 °F 30.04 in South 9.2 mph 9.2 mph 76 % 0.00 in 88.0 W/m2 CLR
07:53 35.0 °F 27.9 °F 30.04 in SSW 11.5 mph 11.5 mph 75 % 0.00 in 104.0 W/m2 CLR
07:58 35.2 °F 28.1 °F 30.04 in SW 13.0 mph 13.0 mph 75 % 0.00 in 120.0 W/m2 CLR
08:03 35.6 °F 28.1 °F 30.04 in SW 10.0 mph 10.0 mph 74 % 0.00 in 137.0 W/m2 CLR
08:13 36.2 °F 28.4 °F 30.03 in SSW 11.5 mph 11.5 mph 73 % 0.00 in 172.0 W/m2 CLR
08:18 36.4 °F 28.6 °F 30.02 in South 16.1 mph 16.1 mph 73 % 0.00 in 192.0 W/m2 CLR
08:28 37.0 °F 28.8 °F 30.01 in South 15.0 mph 15.0 mph 72 % 0.00 in 190.0 W/m2 CLR
08:33 37.2 °F 29.0 °F 30.01 in SSW 10.4 mph 10.4 mph 72 % 0.00 in 204.0 W/m2 CLR
08:38 37.5 °F 29.3 °F 30.01 in SSW 16.1 mph 16.1 mph 72 % 0.00 in 237.0 W/m2 CLR
08:48 38.0 °F 29.4 °F 30.00 in SSW 15.0 mph 15.0 mph 71 % 0.00 in 262.0 W/m2 CLR
08:53 38.3 °F 29.7 °F 30.01 in SSW 17.3 mph 17.3 mph 71 % 0.00 in 290.0 W/m2 CLR
08:58 38.6 °F 30.0 °F 30.01 in SSW 11.5 mph 11.5 mph 71 % 0.00 in 301.0 W/m2 CLR
09:03 38.9 °F 30.3 °F 30.00 in SSW 6.9 mph 6.9 mph 71 % 0.00 in 309.0 W/m2 CLR
09:08 39.1 °F 30.1 °F 30.00 in SSW 11.5 mph 11.5 mph 70 % 0.00 in 322.0 W/m2 CLR
Bourbonnais, Illinois, USA
Compliments of Weather Underground - 1.25 mb